createdAt,value
2022-10-15T00:01:52.823Z,77.00
2022-10-15T00:04:21.753Z,77.10
2022-10-15T00:06:49.921Z,77.05
2022-10-15T00:09:19.447Z,77.12
2022-10-15T00:11:47.252Z,77.41
2022-10-15T00:14:15.700Z,77.37
2022-10-15T00:16:45.795Z,77.64
2022-10-15T00:19:14.036Z,77.55
2022-10-15T00:21:41.952Z,77.72
2022-10-15T00:24:11.370Z,77.87
2022-10-15T00:26:42.306Z,77.98
2022-10-15T00:29:10.437Z,78.21
2022-10-15T00:31:38.484Z,78.06
2022-10-15T00:34:08.243Z,78.13
2022-10-15T00:36:37.886Z,78.37
2022-10-15T00:39:07.250Z,78.46
2022-10-15T00:41:38.364Z,78.53
2022-10-15T00:44:21.901Z,78.39
2022-10-15T00:46:57.936Z,78.64
2022-10-15T00:49:35.864Z,78.77
2022-10-15T00:52:11.770Z,78.71
2022-10-15T00:54:51.332Z,78.97
2022-10-15T00:57:21.471Z,78.88
2022-10-15T00:59:54.349Z,78.86
2022-10-15T01:02:27.855Z,78.72
2022-10-15T01:05:03.533Z,78.98
2022-10-15T01:07:31.741Z,78.99
2022-10-15T01:10:02.229Z,78.88
2022-10-15T01:12:54.482Z,79.14
2022-10-15T01:15:54.867Z,79.01
2022-10-15T01:18:31.748Z,79.11
2022-10-15T01:21:10.288Z,79.08
2022-10-15T01:24:03.581Z,78.95
2022-10-15T01:26:50.415Z,79.05
2022-10-15T01:29:54.007Z,79.15
2022-10-15T01:32:35.245Z,79.09
2022-10-15T01:35:30.653Z,79.12
2022-10-15T01:38:26.979Z,79.14
2022-10-15T01:41:01.496Z,79.10
2022-10-15T01:43:58.648Z,79.11
2022-10-15T01:46:48.081Z,79.05
2022-10-15T01:49:29.303Z,79.15
2022-10-15T01:52:00.958Z,79.09
2022-10-15T01:54:31.313Z,79.23
2022-10-15T01:57:00.270Z,79.30
2022-10-15T01:59:32.596Z,79.11
2022-10-15T02:02:02.644Z,78.96
2022-10-15T02:04:32.454Z,79.07
2022-10-15T02:07:36.790Z,79.03
2022-10-15T02:10:22.217Z,78.99
2022-10-15T02:13:05.716Z,79.17
2022-10-15T02:15:47.723Z,79.05
2022-10-15T02:18:28.690Z,78.94
2022-10-15T02:21:10.127Z,78.93
2022-10-15T02:23:56.611Z,79.13
2022-10-15T02:26:30.494Z,79.18
2022-10-15T02:29:01.534Z,79.08
2022-10-15T02:31:36.516Z,79.03
2022-10-15T02:34:13.996Z,79.10
2022-10-15T02:36:43.914Z,79.26
2022-10-15T02:39:16.206Z,79.16
2022-10-15T02:41:45.233Z,79.22
2022-10-15T02:44:17.450Z,79.17
2022-10-15T02:46:47.223Z,79.28
2022-10-15T02:49:16.076Z,79.30
2022-10-15T02:51:44.476Z,79.38
2022-10-15T02:54:17.579Z,79.28
2022-10-15T02:56:51.114Z,79.34
2022-10-15T02:59:20.534Z,79.20
2022-10-15T03:01:48.501Z,79.33
2022-10-15T03:04:17.235Z,79.22
2022-10-15T03:06:45.999Z,79.23
2022-10-15T03:09:15.705Z,79.26
2022-10-15T03:11:44.693Z,79.36
2022-10-15T03:14:12.739Z,79.19
2022-10-15T03:16:40.819Z,79.21
2022-10-15T03:19:11.946Z,79.15
2022-10-15T03:21:43.966Z,79.25
2022-10-15T03:24:14.262Z,78.95
2022-10-15T03:26:44.634Z,79.03
2022-10-15T03:29:12.592Z,79.02
2022-10-15T03:31:47.866Z,79.07
2022-10-15T03:34:16.987Z,79.03
2022-10-15T03:36:47.440Z,78.94
2022-10-15T03:39:16.731Z,79.10
2022-10-15T03:41:45.776Z,79.07
2022-10-15T03:44:18.327Z,78.96
2022-10-15T03:46:48.167Z,78.99
2022-10-15T03:49:18.536Z,78.93
2022-10-15T03:51:46.874Z,78.91
2022-10-15T03:54:17.710Z,79.07
2022-10-15T03:56:50.048Z,79.02
2022-10-15T03:59:30.051Z,78.92
2022-10-15T04:02:01.653Z,78.97
2022-10-15T04:04:33.805Z,78.95
2022-10-15T04:07:02.095Z,78.91
2022-10-15T04:09:32.030Z,78.89
2022-10-15T04:12:19.932Z,78.79
2022-10-15T04:14:49.594Z,78.86
2022-10-15T04:17:18.948Z,78.94
2022-10-15T04:19:47.044Z,79.03
2022-10-15T04:22:17.372Z,78.97
2022-10-15T04:24:54.464Z,79.06
2022-10-15T04:27:29.631Z,78.94
2022-10-15T04:30:11.249Z,78.88
2022-10-15T04:32:43.747Z,79.12
2022-10-15T04:35:12.581Z,78.90
2022-10-15T04:37:50.585Z,78.83
2022-10-15T04:40:18.934Z,78.85
2022-10-15T04:42:48.135Z,78.81
2022-10-15T04:45:16.410Z,78.71
2022-10-15T04:47:47.071Z,78.78
2022-10-15T04:50:17.308Z,78.63
2022-10-15T04:53:04.852Z,78.77
2022-10-15T04:55:36.236Z,78.75
2022-10-15T04:58:04.514Z,78.73
2022-10-15T05:00:32.825Z,78.92
2022-10-15T05:03:20.580Z,78.91
2022-10-15T05:06:00.725Z,78.86
2022-10-15T05:08:30.964Z,78.75
2022-10-15T05:11:20.162Z,78.70
2022-10-15T05:13:51.631Z,78.94
2022-10-15T05:16:23.801Z,78.87
2022-10-15T05:18:55.946Z,79.02
2022-10-15T05:21:24.308Z,78.99
2022-10-15T05:23:55.762Z,79.08
2022-10-15T05:27:02.941Z,79.08
2022-10-15T05:29:37.258Z,79.21
2022-10-15T05:32:07.777Z,79.21
2022-10-15T05:34:47.262Z,79.12
2022-10-15T05:37:17.176Z,79.31
2022-10-15T05:39:45.487Z,79.27
2022-10-15T05:42:14.026Z,79.29
2022-10-15T05:44:53.666Z,79.20
2022-10-15T05:47:26.995Z,79.25
2022-10-15T05:50:12.056Z,79.25
2022-10-15T05:52:46.806Z,79.24
2022-10-15T05:55:41.092Z,79.37
2022-10-15T05:58:09.392Z,79.21
2022-10-15T06:00:40.063Z,79.40
2022-10-15T06:03:12.388Z,79.22
2022-10-15T06:05:50.940Z,79.30
2022-10-15T06:08:20.394Z,79.34
2022-10-15T06:10:49.164Z,79.34
2022-10-15T06:13:18.043Z,79.50
2022-10-15T06:15:46.851Z,79.27
2022-10-15T06:18:16.662Z,79.22
2022-10-15T06:20:51.082Z,79.23
2022-10-15T06:26:15.583Z,79.17
2022-10-15T06:28:55.646Z,79.23
2022-10-15T06:31:24.575Z,79.42
2022-10-15T06:33:54.849Z,79.41
2022-10-15T06:36:26.607Z,79.33
2022-10-15T06:38:55.134Z,79.50
2022-10-15T06:41:23.052Z,79.58
2022-10-15T06:46:23.416Z,79.70
2022-10-15T06:48:52.150Z,79.88
2022-10-15T06:51:20.469Z,79.81
2022-10-15T06:53:51.449Z,79.71
2022-10-15T06:56:20.606Z,79.84
2022-10-15T06:58:48.931Z,79.69
2022-10-15T07:01:17.466Z,79.70
2022-10-15T07:03:49.326Z,79.79
2022-10-15T07:06:18.550Z,79.81
2022-10-15T07:08:47.013Z,79.91
2022-10-15T07:11:20.417Z,79.84
2022-10-15T07:13:49.383Z,79.97
2022-10-15T07:16:23.069Z,80.06
2022-10-15T07:18:52.643Z,79.82
2022-10-15T07:21:21.281Z,80.00
2022-10-15T07:23:52.199Z,80.18
2022-10-15T07:26:38.324Z,80.29
2022-10-15T07:29:15.697Z,80.07
2022-10-15T07:34:15.055Z,80.23
2022-10-15T07:36:44.564Z,80.28
2022-10-15T07:39:20.950Z,80.13
2022-10-15T07:41:48.964Z,80.11
2022-10-15T07:44:24.099Z,80.31
2022-10-15T07:46:55.423Z,80.32
2022-10-15T07:49:25.431Z,80.35
2022-10-15T07:51:53.512Z,80.27
2022-10-15T07:54:27.465Z,80.39
2022-10-15T07:56:55.555Z,80.31
2022-10-15T07:59:24.535Z,80.37
2022-10-15T08:01:52.824Z,80.43
2022-10-15T08:04:26.635Z,80.49
2022-10-15T08:06:57.251Z,80.46
2022-10-15T08:09:26.727Z,80.36
2022-10-15T08:11:57.863Z,80.23
2022-10-15T08:14:28.742Z,80.41
2022-10-15T08:17:00.985Z,80.42
2022-10-15T08:19:31.840Z,80.31
2022-10-15T08:22:00.376Z,80.34
2022-10-15T08:24:31.796Z,80.41
2022-10-15T08:27:10.849Z,80.43
2022-10-15T08:29:39.216Z,80.61
2022-10-15T08:32:08.065Z,80.55
2022-10-15T08:37:27.210Z,80.41
2022-10-15T08:39:56.524Z,80.44
2022-10-15T08:42:51.630Z,80.65
2022-10-15T08:45:53.209Z,80.80
2022-10-15T08:48:32.767Z,80.83
2022-10-15T08:51:15.513Z,81.02
2022-10-15T08:54:04.956Z,81.10
2022-10-15T08:56:44.903Z,81.05
2022-10-15T08:59:59.417Z,80.92
2022-10-15T09:03:10.373Z,80.66
2022-10-15T09:05:59.326Z,80.46
2022-10-15T09:08:38.622Z,80.58
2022-10-15T09:11:19.792Z,80.58
2022-10-15T09:13:49.597Z,80.21
2022-10-15T09:16:32.733Z,80.07
2022-10-15T09:19:11.875Z,79.86
2022-10-15T09:21:47.039Z,80.00
2022-10-15T09:24:33.619Z,79.62
2022-10-15T09:27:23.573Z,79.70
2022-10-15T09:30:21.829Z,79.20
2022-10-15T09:33:16.712Z,78.94
2022-10-15T09:35:56.885Z,78.80
2022-10-15T09:39:01.216Z,78.70
2022-10-15T09:41:42.844Z,78.22
2022-10-15T09:44:17.430Z,77.90
2022-10-15T09:46:53.028Z,77.86
2022-10-15T09:49:25.011Z,77.52
2022-10-15T09:52:16.620Z,77.75
2022-10-15T09:55:05.584Z,77.36
2022-10-15T09:57:40.088Z,77.38
2022-10-15T10:00:13.964Z,77.37
2022-10-15T10:02:43.608Z,77.37
2022-10-15T10:05:34.886Z,77.07
2022-10-15T10:08:31.826Z,77.05
2022-10-15T10:11:21.200Z,76.44
2022-10-15T10:14:30.757Z,76.25
2022-10-15T10:17:42.475Z,76.30
2022-10-15T10:20:33.418Z,76.25
2022-10-15T10:23:24.123Z,76.04
2022-10-15T10:25:52.260Z,76.07
2022-10-15T10:28:43.433Z,76.03
2022-10-15T10:31:15.352Z,75.84
2022-10-15T10:33:51.081Z,75.81
2022-10-15T10:36:31.204Z,75.66
2022-10-15T10:39:15.962Z,75.47
2022-10-15T10:42:06.290Z,75.51
2022-10-15T10:44:40.757Z,75.57
2022-10-15T10:47:08.639Z,75.48
2022-10-15T10:49:39.775Z,75.32
2022-10-15T10:58:45.319Z,74.72
2022-10-15T11:01:15.922Z,74.93
2022-10-15T11:03:52.465Z,74.67
2022-10-15T11:06:51.021Z,74.49
2022-10-15T11:09:51.101Z,74.19
2022-10-15T11:13:01.772Z,74.19
2022-10-15T11:15:54.566Z,74.16
2022-10-15T11:18:27.427Z,73.62
2022-10-15T11:21:34.680Z,73.46
2022-10-15T11:24:48.334Z,73.50
2022-10-15T11:27:42.528Z,73.22
2022-10-15T11:30:34.379Z,73.44
2022-10-15T11:33:33.961Z,73.21
2022-10-15T11:36:31.025Z,73.13
2022-10-15T11:39:20.345Z,73.09
2022-10-15T11:42:07.011Z,73.06
2022-10-15T11:45:34.152Z,73.18
2022-10-15T11:48:23.439Z,72.99
2022-10-15T11:50:57.733Z,73.14
2022-10-15T11:53:50.779Z,73.08
2022-10-15T11:56:32.623Z,73.09
2022-10-15T11:59:15.816Z,72.93
2022-10-15T12:01:49.693Z,72.95
2022-10-15T12:04:32.543Z,72.86
2022-10-15T12:07:04.757Z,72.64
2022-10-15T12:09:39.438Z,72.68
2022-10-15T12:12:15.949Z,72.63
2022-10-15T12:15:12.523Z,72.53
2022-10-15T12:17:50.673Z,72.25
2022-10-15T12:20:22.296Z,72.16
2022-10-15T12:23:03.333Z,72.04
2022-10-15T12:25:33.976Z,72.04
2022-10-15T12:28:12.180Z,72.19
2022-10-15T12:30:43.182Z,71.77
2022-10-15T12:33:32.979Z,71.61
2022-10-15T12:36:22.079Z,71.55
2022-10-15T12:39:12.804Z,71.58
2022-10-15T12:41:50.641Z,71.26
2022-10-15T12:44:27.441Z,71.30
2022-10-15T12:46:56.424Z,71.30
2022-10-15T12:49:35.137Z,71.39
2022-10-15T12:52:42.352Z,71.28
2022-10-15T12:55:40.139Z,71.22
2022-10-15T12:58:55.099Z,71.23
2022-10-15T13:01:23.117Z,71.17
2022-10-15T13:03:56.314Z,71.21
2022-10-15T13:06:51.411Z,71.13
2022-10-15T13:09:27.520Z,71.20
2022-10-15T13:12:17.708Z,71.19
2022-10-15T13:15:04.419Z,71.13
2022-10-15T13:17:32.756Z,71.21
2022-10-15T13:20:24.379Z,71.10
2022-10-15T13:23:18.835Z,71.04
2022-10-15T13:26:14.414Z,71.03
2022-10-15T13:28:44.208Z,71.01
2022-10-15T13:31:46.150Z,71.06
2022-10-15T13:34:27.628Z,70.85
2022-10-15T13:36:59.620Z,70.99
2022-10-15T13:42:17.456Z,70.76
2022-10-15T13:45:04.566Z,70.53
2022-10-15T13:47:42.149Z,70.94
2022-10-15T13:50:34.865Z,70.90
2022-10-15T13:53:22.889Z,70.78
2022-10-15T13:55:53.388Z,71.04
2022-10-15T13:58:33.345Z,71.13
2022-10-15T14:01:33.706Z,71.07
2022-10-15T14:04:03.489Z,70.99
2022-10-15T14:06:57.262Z,70.82
2022-10-15T14:09:28.618Z,70.81
2022-10-15T14:12:00.705Z,70.92
2022-10-15T14:14:37.725Z,70.85
2022-10-15T14:17:09.447Z,70.82
2022-10-15T14:19:39.612Z,70.97
2022-10-15T14:22:16.889Z,70.98
2022-10-15T14:24:48.611Z,70.87
2022-10-15T14:27:24.081Z,70.80
2022-10-15T14:29:59.033Z,70.89
2022-10-15T14:32:48.591Z,71.10
2022-10-15T14:35:38.014Z,71.05
2022-10-15T14:38:16.328Z,71.09
2022-10-15T14:41:04.843Z,71.17
2022-10-15T14:43:38.161Z,71.21
2022-10-15T14:46:09.055Z,71.26
2022-10-15T14:48:38.879Z,71.10
2022-10-15T14:51:12.627Z,71.27
2022-10-15T14:53:48.280Z,71.42
2022-10-15T14:56:23.177Z,71.53
2022-10-15T14:59:01.757Z,71.57
2022-10-15T15:01:33.994Z,71.51
2022-10-15T15:04:02.827Z,71.54
2022-10-15T15:06:35.377Z,71.58
2022-10-15T15:09:07.292Z,71.72
2022-10-15T15:11:36.863Z,71.75
2022-10-15T15:14:08.968Z,71.57
2022-10-15T15:16:38.917Z,71.77
2022-10-15T15:19:09.268Z,71.83
2022-10-15T15:21:37.236Z,71.85
2022-10-15T15:24:06.326Z,72.02
2022-10-15T15:26:35.460Z,72.02
2022-10-15T15:29:03.535Z,72.01
2022-10-15T15:31:33.938Z,72.01
2022-10-15T15:34:02.504Z,71.94
2022-10-15T15:36:30.606Z,72.17
2022-10-15T15:39:00.098Z,72.33
2022-10-15T15:41:29.728Z,72.18
2022-10-15T15:43:59.958Z,72.28
2022-10-15T15:46:33.309Z,72.26
2022-10-15T15:49:01.481Z,72.19
2022-10-15T15:51:33.989Z,72.37
2022-10-15T15:54:04.734Z,72.50
2022-10-15T15:56:35.149Z,72.48
2022-10-15T15:59:05.894Z,72.45
2022-10-15T16:01:36.511Z,72.74
2022-10-15T16:04:09.860Z,72.65
2022-10-15T16:06:42.659Z,72.66
2022-10-15T16:09:11.820Z,72.77
2022-10-15T16:11:40.249Z,72.97
2022-10-15T16:14:09.497Z,72.92
2022-10-15T16:16:37.828Z,72.98
2022-10-15T16:19:06.401Z,73.14
2022-10-15T16:21:34.741Z,72.95
2022-10-15T16:24:06.676Z,73.04
2022-10-15T16:26:35.712Z,73.20
2022-10-15T16:29:03.673Z,73.27
2022-10-15T16:31:37.059Z,73.35
2022-10-15T16:34:05.306Z,73.39
2022-10-15T16:36:34.383Z,73.49
2022-10-15T16:39:02.603Z,73.30
2022-10-15T16:41:33.929Z,73.65
2022-10-15T16:44:04.705Z,73.61
2022-10-15T16:46:33.910Z,73.58
2022-10-15T16:49:02.334Z,73.65
2022-10-15T16:54:03.705Z,74.01
2022-10-15T16:56:32.429Z,73.84
2022-10-15T16:59:03.355Z,73.96
2022-10-15T17:01:31.761Z,73.97
2022-10-15T17:04:00.857Z,73.89
2022-10-15T17:06:31.295Z,74.00
2022-10-15T17:09:03.888Z,73.88
2022-10-15T17:11:34.989Z,73.94
2022-10-15T17:14:07.826Z,74.11
2022-10-15T17:16:43.925Z,73.99
2022-10-15T17:19:19.904Z,74.25
2022-10-15T17:21:48.444Z,74.38
2022-10-15T17:24:19.509Z,74.28
2022-10-15T17:26:49.947Z,74.35
2022-10-15T17:29:23.098Z,74.50
2022-10-15T17:31:52.923Z,74.50
2022-10-15T17:34:21.808Z,74.62
2022-10-15T17:36:50.839Z,74.82
2022-10-15T17:39:30.486Z,74.83
2022-10-15T17:41:59.080Z,74.86
2022-10-15T17:44:27.716Z,74.89
2022-10-15T17:46:55.910Z,74.97
2022-10-15T17:49:30.879Z,74.94
2022-10-15T17:51:59.981Z,74.96
2022-10-15T17:54:27.955Z,75.18
2022-10-15T17:56:57.837Z,75.34
2022-10-15T17:59:26.128Z,75.38
2022-10-15T18:01:59.154Z,75.69
2022-10-15T18:04:33.427Z,75.77
2022-10-15T18:07:01.408Z,76.03
2022-10-15T18:09:29.829Z,76.13
2022-10-15T18:12:00.800Z,76.36
2022-10-15T18:14:30.363Z,76.47
2022-10-15T18:17:01.534Z,76.46
2022-10-15T18:19:31.128Z,76.49
2022-10-15T18:22:01.139Z,76.78
2022-10-15T18:24:29.400Z,76.79
2022-10-15T18:26:59.198Z,76.82
2022-10-15T18:29:28.881Z,77.01
2022-10-15T18:31:58.170Z,77.17
2022-10-15T18:34:28.985Z,77.18
2022-10-15T18:36:57.916Z,77.07
2022-10-15T18:39:27.936Z,77.36
2022-10-15T18:41:56.675Z,77.39
2022-10-15T18:44:29.055Z,77.46
2022-10-15T18:46:58.295Z,77.85
2022-10-15T18:49:26.173Z,78.11
2022-10-15T18:51:56.502Z,78.10
2022-10-15T18:54:24.735Z,78.12
2022-10-15T18:56:55.889Z,78.30
2022-10-15T18:59:32.605Z,78.39
2022-10-15T19:02:08.244Z,78.44
2022-10-15T19:04:38.003Z,78.71
2022-10-15T19:07:08.682Z,78.80
2022-10-15T19:09:41.395Z,78.86
2022-10-15T19:12:09.661Z,79.04
2022-10-15T19:14:38.117Z,79.18
2022-10-15T19:17:08.447Z,79.61
2022-10-15T19:19:36.689Z,79.77
2022-10-15T19:22:08.987Z,79.80
2022-10-15T19:24:39.314Z,79.76
2022-10-15T19:27:07.405Z,79.84
2022-10-15T19:29:35.458Z,79.88
2022-10-15T19:32:04.741Z,80.18
2022-10-15T19:34:35.652Z,80.49
2022-10-15T19:37:06.649Z,80.34
2022-10-15T19:39:37.539Z,80.46
2022-10-15T19:42:06.792Z,80.43
2022-10-15T19:44:34.600Z,80.47
2022-10-15T19:47:02.414Z,80.65
2022-10-15T19:49:30.619Z,80.97
2022-10-15T19:51:58.997Z,81.00
2022-10-15T19:54:28.020Z,81.10
2022-10-15T19:56:56.343Z,81.22
2022-10-15T19:59:26.831Z,81.28
2022-10-15T20:01:57.136Z,81.77
2022-10-15T20:04:26.096Z,81.78
2022-10-15T20:06:55.974Z,81.67
2022-10-15T20:09:24.369Z,81.77
2022-10-15T20:11:52.640Z,82.01
2022-10-15T20:14:26.308Z,82.25
2022-10-15T20:16:57.221Z,82.13
2022-10-15T20:19:25.608Z,82.25
2022-10-15T20:21:54.602Z,82.49
2022-10-15T20:24:22.596Z,82.70
2022-10-15T20:26:52.213Z,82.54
2022-10-15T20:29:19.977Z,82.52
2022-10-15T20:31:51.951Z,82.51
2022-10-15T20:34:20.495Z,82.91
2022-10-15T20:36:53.328Z,82.92
2022-10-15T20:39:21.970Z,83.08
2022-10-15T20:41:49.812Z,83.21
2022-10-15T20:44:18.017Z,83.32
2022-10-15T20:46:53.646Z,83.27
2022-10-15T20:49:48.359Z,83.64
2022-10-15T20:52:16.789Z,83.64
2022-10-15T20:54:45.742Z,83.52
2022-10-15T20:57:14.182Z,83.52
2022-10-15T20:59:42.158Z,83.58
2022-10-15T21:02:12.585Z,83.68
2022-10-15T21:05:00.878Z,83.73
2022-10-15T21:07:31.083Z,83.82
2022-10-15T21:09:59.407Z,83.74
2022-10-15T21:12:27.607Z,83.94
2022-10-15T21:14:55.800Z,83.98
2022-10-15T21:17:24.348Z,84.13
2022-10-15T21:19:54.153Z,84.10
2022-10-15T21:22:27.187Z,84.24
2022-10-15T21:24:57.301Z,84.35
2022-10-15T21:27:25.232Z,84.35
2022-10-15T21:29:53.346Z,84.35
2022-10-15T21:32:21.073Z,84.61
2022-10-15T21:34:48.937Z,84.88
2022-10-15T21:37:17.320Z,84.87
2022-10-15T21:39:45.751Z,85.05
2022-10-15T21:42:14.023Z,85.15
2022-10-15T21:44:41.810Z,85.30
2022-10-15T21:47:12.909Z,85.49
2022-10-15T21:49:45.718Z,85.61
2022-10-15T21:52:14.203Z,85.63
2022-10-15T21:54:42.125Z,85.74
2022-10-15T21:57:09.895Z,85.87
2022-10-15T21:59:38.338Z,85.83
2022-10-15T22:02:07.276Z,86.04
2022-10-15T22:04:35.841Z,86.05
2022-10-15T22:07:06.650Z,86.10
2022-10-15T22:09:36.864Z,86.06
2022-10-15T22:12:05.557Z,86.23
2022-10-15T22:14:35.154Z,86.23
2022-10-15T22:17:11.986Z,86.29
2022-10-15T22:19:40.261Z,86.49
2022-10-15T22:22:09.041Z,86.50
2022-10-15T22:24:38.439Z,86.47
2022-10-15T22:27:08.341Z,86.50
2022-10-15T22:29:37.421Z,86.65
2022-10-15T22:32:05.929Z,86.83
2022-10-15T22:34:34.428Z,86.61
2022-10-15T22:37:02.594Z,86.90
2022-10-15T22:39:31.089Z,86.85
2022-10-15T22:42:00.207Z,86.85
2022-10-15T22:44:28.219Z,87.08
2022-10-15T22:46:55.951Z,87.16
2022-10-15T22:49:26.207Z,87.10
2022-10-15T22:51:56.703Z,87.11
2022-10-15T22:54:26.764Z,87.18
2022-10-15T22:56:54.941Z,86.97
2022-10-15T22:59:24.310Z,86.88
2022-10-15T23:01:52.740Z,87.10
2022-10-15T23:04:21.572Z,87.18
2022-10-15T23:06:53.068Z,87.22
2022-10-15T23:09:22.031Z,87.10
2022-10-15T23:11:54.786Z,87.04
2022-10-15T23:14:22.877Z,87.28
2022-10-15T23:16:51.256Z,87.38
2022-10-15T23:19:21.709Z,87.38
2022-10-15T23:21:57.717Z,87.43
2022-10-15T23:24:31.958Z,87.34
2022-10-15T23:27:00.848Z,87.41
2022-10-15T23:29:28.805Z,87.63
2022-10-15T23:32:02.365Z,87.74
2022-10-15T23:34:33.840Z,87.82
2022-10-15T23:37:03.324Z,87.68
2022-10-15T23:39:33.109Z,87.65
2022-10-15T23:42:00.966Z,87.85
2022-10-15T23:44:31.169Z,87.78
2022-10-15T23:46:59.409Z,88.05
2022-10-15T23:49:28.290Z,87.94
2022-10-15T23:51:56.079Z,87.97
2022-10-15T23:54:23.890Z,88.01
2022-10-15T23:56:53.664Z,87.98
2022-10-15T23:59:22.708Z,88.01
